地図

経路データ

SID SEASON NUMBER BASIN SUBBASIN NAME ISO_TIME NATURE LAT LON WMO_WIND WMO_PRES WMO_AGENCY TRACK_TYPE DIST2LAND LANDFALL IFLAG USA_AGENCY USA_ATCF_ID USA_LAT USA_LON USA_RECORD USA_STATUS USA_WIND USA_PRES USA_SSHS USA_R34_NE USA_R34_SE USA_R34_SW USA_R34_NW USA_R50_NE USA_R50_SE USA_R50_SW USA_R50_NW USA_R64_NE USA_R64_SE USA_R64_SW USA_R64_NW USA_POCI USA_ROCI USA_RMW USA_EYE TOKYO_LAT TOKYO_LON TOKYO_GRADE TOKYO_WIND TOKYO_PRES TOKYO_R50_DIR TOKYO_R50_LONG TOKYO_R50_SHORT TOKYO_R30_DIR TOKYO_R30_LONG TOKYO_R30_SHORT TOKYO_LAND CMA_LAT CMA_LON CMA_CAT CMA_WIND CMA_PRES HKO_LAT HKO_LON HKO_CAT HKO_WIND HKO_PRES NEWDELHI_LAT NEWDELHI_LON NEWDELHI_GRADE NEWDELHI_WIND NEWDELHI_PRES NEWDELHI_CI NEWDELHI_DP NEWDELHI_POCI REUNION_LAT REUNION_LON REUNION_TYPE REUNION_WIND REUNION_PRES REUNION_TNUM REUNION_CI REUNION_RMW REUNION_R34_NE REUNION_R34_SE REUNION_R34_SW REUNION_R34_NW REUNION_R50_NE REUNION_R50_SE REUNION_R50_SW REUNION_R50_NW REUNION_R64_NE REUNION_R64_SE REUNION_R64_SW REUNION_R64_NW BOM_LAT BOM_LON BOM_TYPE BOM_WIND BOM_PRES BOM_TNUM BOM_CI BOM_RMW BOM_R34_NE BOM_R34_SE BOM_R34_SW BOM_R34_NW BOM_R50_NE BOM_R50_SE BOM_R50_SW BOM_R50_NW BOM_R64_NE BOM_R64_SE BOM_R64_SW BOM_R64_NW BOM_ROCI BOM_POCI BOM_EYE BOM_POS_METHOD BOM_PRES_METHOD NADI_LAT NADI_LON NADI_CAT NADI_WIND NADI_PRES WELLINGTON_LAT WELLINGTON_LON WELLINGTON_WIND WELLINGTON_PRES DS824_LAT DS824_LON DS824_STAGE DS824_WIND DS824_PRES TD9636_LAT TD9636_LON TD9636_STAGE TD9636_WIND TD9636_PRES TD9635_LAT TD9635_LON TD9635_WIND TD9635_PRES TD9635_ROCI NEUMANN_LAT NEUMANN_LON NEUMANN_CLASS NEUMANN_WIND NEUMANN_PRES MLC_LAT MLC_LON MLC_CLASS MLC_WIND MLC_PRES USA_GUST BOM_GUST BOM_GUST_PER REUNION_GUST REUNION_GUST_PER USA_SEAHGT USA_SEARAD_NE USA_SEARAD_SE USA_SEARAD_SW USA_SEARAD_NW STORM_SPEED STORM_DIR
1967245N15335 1967 88 NA NA NOT_NAMED 1967-09-01 12:00:00 TS 14.5000 -25.0000 25 hurdat_atl main 807 807 O_____________ hurdat_atl AL281967 14.5000 -25.0000 TD 25 -1 5 282
1967245N15335 1967 88 NA NA NOT_NAMED 1967-09-01 15:00:00 TS 14.5526 -25.2500 main 828 828 P_____________ AL281967 14.5526 -25.2500 TD 25 -1 5 282
1967245N15335 1967 88 NA NA NOT_NAMED 1967-09-01 18:00:00 TS 14.6000 -25.5000 25 hurdat_atl main 861 861 O_____________ hurdat_atl AL281967 14.6000 -25.5000 TD 25 -1 5 281
1967245N15335 1967 88 NA NA NOT_NAMED 1967-09-01 21:00:00 TS 14.6425 -25.7500 main 893 893 P_____________ AL281967 14.6425 -25.7500 TD 25 -1 5 282
1967245N15335 1967 88 NA NA NOT_NAMED 1967-09-02 00:00:00 TS 14.7000 -26.0000 25 hurdat_atl main 914 914 O_____________ hurdat_atl AL281967 14.7000 -26.0000 TD 25 -1 5 286
1967245N15335 1967 88 NA NA NOT_NAMED 1967-09-02 03:00:00 TS 14.7850 -26.2500 main 946 946 P_____________ AL281967 14.7850 -26.2500 TD 25 -1 5 292
1967245N15335 1967 88 NA NA NOT_NAMED 1967-09-02 06:00:00 TS 14.9000 -26.5000 25 hurdat_atl main 968 968 O_____________ hurdat_atl AL281967 14.9000 -26.5000 TD 25 -1 5 298
1967245N15335 1967 88 NA NA NOT_NAMED 1967-09-02 09:00:00 TS 15.0349 -26.7426 main 989 989 P_____________ AL281967 15.0349 -26.7426 TD 27 -1 6 302
1967245N15335 1967 88 NA NA NOT_NAMED 1967-09-02 12:00:00 TS 15.2000 -27.0000 30 hurdat_atl main 1022 1022 O_____________ hurdat_atl AL281967 15.2000 -27.0000 TD 30 -1 6 305
1967245N15335 1967 88 NA NA NOT_NAMED 1967-09-02 15:00:00 TS 15.4000 -27.2925 main 1055 1055 P_____________ AL281967 15.4000 -27.2925 TD 30 -1 7 305
1967245N15335 1967 88 NA NA NOT_NAMED 1967-09-02 18:00:00 TS 15.6000 -27.6000 30 hurdat_atl main 1089 1089 O_____________ hurdat_atl AL281967 15.6000 -27.6000 TD 30 -1 7 301
1967245N15335 1967 88 NA NA NOT_NAMED 1967-09-02 21:00:00 TS 15.7575 -27.9076 main 1122 1122 P_____________ AL281967 15.7575 -27.9076 TD 30 -1 7 297
1967245N15335 1967 88 NA NA NOT_NAMED 1967-09-03 00:00:00 TS 15.9000 -28.2000 30 hurdat_atl main 1155 1155 O_____________ hurdat_atl AL281967 15.9000 -28.2000 TD 30 -1 6 299
1967245N15335 1967 88 NA NA NOT_NAMED 1967-09-03 03:00:00 TS 16.0424 -28.4501 main 1188 1188 P_____________ AL281967 16.0424 -28.4501 TD 30 -1 6 302
1967245N15335 1967 88 NA NA NOT_NAMED 1967-09-03 06:00:00 TS 16.2000 -28.7000 30 hurdat_atl main 1212 1212 O_____________ hurdat_atl AL281967 16.2000 -28.7000 TD 30 -1 6 304
1967245N15335 1967 88 NA NA NOT_NAMED 1967-09-03 09:00:00 TS 16.3925 -29.0000 main 1246 1246 P_____________ AL281967 16.3925 -29.0000 TD 32 -1 7 305
1967245N15335 1967 88 NA NA NOT_NAMED 1967-09-03 12:00:00 TS 16.6000 -29.3000 35 hurdat_atl main 1281 1281 O_____________ hurdat_atl AL281967 16.6000 -29.3000 TS 35 0 7 308
1967245N15335 1967 88 NA NA NOT_NAMED 1967-09-03 15:00:00 TS 16.8074 -29.5575 main 1316 1316 P_____________ AL281967 16.8074 -29.5575 TS 35 0 6 310
1967245N15335 1967 88 NA NA NOT_NAMED 1967-09-03 18:00:00 TS 17.0000 -29.8000 35 1004 hurdat_atl main 1340 1340 O_____________ hurdat_atl AL281967 17.0000 -29.8000 TS 35 1004 0 6 308
1967245N15335 1967 88 NA NA NOT_NAMED 1967-09-03 21:00:00 TS 17.1649 -30.0426 main 1365 1365 P_____________ AL281967 17.1649 -30.0426 TS 35 0 6 302
1967245N15335 1967 88 NA NA NOT_NAMED 1967-09-04 00:00:00 TS 17.3000 -30.3000 35 hurdat_atl main 1398 1398 O_____________ hurdat_atl AL281967 17.3000 -30.3000 TS 35 0 6 295
1967245N15335 1967 88 NA NA NOT_NAMED 1967-09-04 03:00:00 TS 17.4150 -30.5925 main 1432 1432 P_____________ AL281967 17.4150 -30.5925 TS 35 0 6 289
1967245N15335 1967 88 NA NA NOT_NAMED 1967-09-04 06:00:00 TS 17.5000 -30.9000 35 hurdat_atl main 1465 1465 O_____________ hurdat_atl AL281967 17.5000 -30.9000 TS 35 0 6 285
1967245N15335 1967 88 NA NA NOT_NAMED 1967-09-04 09:00:00 TS 17.5649 -31.1925 main 1498 1498 P_____________ AL281967 17.5649 -31.1925 TS 32 -1 6 280
1967245N15335 1967 88 NA NA NOT_NAMED 1967-09-04 12:00:00 TS 17.6000 -31.5000 30 hurdat_atl main 1530 1530 O_____________ hurdat_atl AL281967 17.6000 -31.5000 TD 30 -1 6 274
1967245N15335 1967 88 NA NA NOT_NAMED 1967-09-04 15:00:00 TS 17.6074 -31.8350 main 1561 1561 P_____________ AL281967 17.6074 -31.8350 TD 30 -1 7 270
1967245N15335 1967 88 NA NA NOT_NAMED 1967-09-04 18:00:00 TS 17.6000 -32.2000 30 hurdat_atl main 1603 1603 O_____________ hurdat_atl AL281967 17.6000 -32.2000 TD 30 -1 7 269
1967245N15335 1967 88 NA NA NOT_NAMED 1967-09-04 21:00:00 TS 17.5999 -32.5775 main 1645 1645 P_____________ AL281967 17.5999 -32.5775 TD 30 -1 8 270
1967245N15335 1967 88 NA NA NOT_NAMED 1967-09-05 00:00:00 TS 17.6000 -33.0000 30 hurdat_atl main 1686 1686 O_____________ hurdat_atl AL281967 17.6000 -33.0000 TD 30 -1 9 270
1967245N15335 1967 88 NA NA NOT_NAMED 1967-09-05 03:00:00 TS 17.5999 -33.4700 main 1739 1739 P_____________ AL281967 17.5999 -33.4700 TD 30 -1 10 270
1967245N15335 1967 88 NA NA NOT_NAMED 1967-09-05 06:00:00 TS 17.6000 -34.0000 30 hurdat_atl main 1791 1791 O_____________ hurdat_atl AL281967 17.6000 -34.0000 TD 30 -1 11 270
1967245N15335 1967 88 NA NA NOT_NAMED 1967-09-05 09:00:00 TS 17.5999 -34.5775 main 1854 1854 P_____________ AL281967 17.5999 -34.5775 TD 27 -1 11 270
1967245N15335 1967 88 NA NA NOT_NAMED 1967-09-05 12:00:00 TS 17.6000 -35.2000 25 hurdat_atl main 1917 1917 O_____________ hurdat_atl AL281967 17.6000 -35.2000 TD 25 -1 12 270
1967245N15335 1967 88 NA NA NOT_NAMED 1967-09-05 15:00:00 TS 17.6004 -35.8450 main 1981 1981 P_____________ AL281967 17.6004 -35.8450 TD 25 -1 12 270
1967245N15335 1967 88 NA NA NOT_NAMED 1967-09-05 18:00:00 TS 17.6000 -36.5000 25 hurdat_atl main 2054 O_____________ hurdat_atl AL281967 17.6000 -36.5000 TD 25 -1 12 270

IBTrACS Databaseについて

本データベースは、米国NOAAが公開する1842年以降の世界の熱帯低気圧のベストトラックデータアーカイブInternational Best Track Archive for Climate Stewardship (IBTrACS)を、ウェブで閲覧しやすい形式に変換したものです。

最終更新日:2022-05-26